This is the latest recevied weather packets stored in our database for station/object N5ZP. If no packets are shown the sender has not sent any weather packets the latest 10 day(s).
| Time | Temp. | Humidity | Pressure | Rain* | Wind** | Luminosity | Snow |
|---|---|---|---|---|---|---|---|
| 1778096527 | 18.89° C | 66% | 1011.6 hPa | 0 mm | - | 296 W/m² | - |
| 1778096224 | 18.89° C | 66% | 1011.6 hPa | 0 mm | - | 299 W/m² | - |
| 1778095921 | 18.89° C | 63% | 1011.8 hPa | 0 mm | - | 391 W/m² | - |
| 1778095618 | 17.78° C | 66% | 1012.1 hPa | 0 mm | - | 498 W/m² | - |
| 1778095314 | 17.78° C | 68% | 1012.2 hPa | 0 mm | - | 355 W/m² | - |
| 1778095011 | 18.89° C | 65% | 1012.1 hPa | 0 mm | - | 407 W/m² | - |
| 1778094707 | 17.78° C | 67% | 1012 hPa | 0 mm | - | 661 W/m² | - |
| 1778094405 | 17.78° C | 65% | 1012.1 hPa | 0 mm | - | 546 W/m² | - |
| 1778094101 | 16.67° C | 67% | 1012.1 hPa | 0 mm | - | 444 W/m² | - |
| 1778093798 | 17.22° C | 67% | 1011.9 hPa | 0 mm | - | 372 W/m² | - |
| 1778093494 | 16.67° C | 67% | 1011.9 hPa | 0 mm | - | 525 W/m² | - |
| 1778093192 | 16.67° C | 68% | 1011.5 hPa | 0 mm | - | 390 W/m² | - |
| 1778092889 | 16.67° C | 69% | 1011.4 hPa | 0 mm | - | 342 W/m² | - |
| 1778092586 | 16.11° C | 70% | 1011.6 hPa | 0 mm | - | 421 W/m² | - |
| 1778092281 | 16.11° C | 69% | 1011.7 hPa | 0 mm | - | 363 W/m² | - |
| 1778091980 | 16.67° C | 69% | 1011.7 hPa | 0 mm | - | 327 W/m² | - |
| 1778091676 | 16.11° C | 69% | 1011.4 hPa | 0 mm | - | 528 W/m² | - |
| 1778091374 | 16.11° C | 70% | 1011.7 hPa | 0 mm | - | 495 W/m² | - |
| 1778091071 | 15.56° C | 74% | 1011.4 hPa | 0 mm | - | 333 W/m² | - |
| 1778090768 | 15° C | 75% | 1011.7 hPa | 0 mm | - | 553 W/m² | - |
| 1778090464 | 15.56° C | 72% | 1012 hPa | 0 mm | - | 389 W/m² | - |
| 1778090160 | 14.44° C | 75% | 1012 hPa | 0 mm | - | 432 W/m² | - |
| 1778089857 | 14.44° C | 74% | 1012 hPa | 0 mm | - | 297 W/m² | - |
| 1778089556 | 14.44° C | 75% | 1012.1 hPa | 0 mm | - | 344 W/m² | - |
| 1778089251 | 13.89° C | 76% | 1012.4 hPa | 0 mm | - | 355 W/m² | - |
* Rain latest hour (hover to see other rain measurements)
** Current wind speed in m/s (hover to see current wind gust speed)